Carnival Glory — 3FPS9 — position and weather

sailwx.info

Track history (hours):
 
Tides and Currents Weather Stations Pressure Air Temp Water Temp Dewpoint Dewpoint Depression Visibility Wind Speed Wind Dir Waves Ship Positions

Carnival Glory

Operator: Carnival Cruise Lines

Last reported at 2017-Sep-20 11:00 UTC. Time now 2017-Sep-21 01:32 UTC.
Position N 16°24' W 086°00'.

Type: Passenger vessel. MMSI: 357659000.

Wind from 090 at 21 knots

Barometer 1014.9 mb
Air temperature 27.0 ° C
Visibility: greater than 10.8 NM
Dewpoint 25.6 ° C
Water temperature 30.0 ° C

Date/timePositionNaut miles runAvg speedWind from/ knotsBaromVisibWave heightAir tempDewpointWater temp
2017-Sep-20 11:00N 16°24' W 086°00'8421.0 090 / 211014.910.8 27.025.630.0
2017-Sep-20 07:00N 17°12' W 084°48'7324.2 130 / 201011.9 26.023.128.0
2017-Sep-20 04:00N 17°48' W 083°42'16410.9 090 / 201012.910.8 28.022.130.0
2017-Sep-19 13:00N 19°18' W 081°18'8311.8 110 / 91013.910.8 28.022.130.0
2017-Sep-19 06:00N 18°54' W 079°54'4020.1 130 / 151012.9 28.025.229.0
2017-Sep-19 04:00N 18°48' W 079°12'8617.2 360 / 221011.9 28.022.130.0
2017-Sep-18 23:00N 18°36' W 077°42'57 4.1 140 / 91012.9 25.023.529.0
2017-Sep-18 09:00N 18°36' W 076°42'9819.5 100 / 191013.9 28.026.630.0
2017-Sep-18 04:00N 19°24' W 075°12'2625.6 030 / 71013.910.8 28.022.130.0
2017-Sep-18 03:00N 19°36' W 074°48'2612.8 340 / 61013.910.8 28.022.130.0
2017-Sep-18 01:00N 19°48' W 074°24'15615.6 340 / 51013.910.8 28.022.130.0
2017-Sep-17 15:00N 21°36' W 076°24'15218.9 220 / 21014.910.8 28.022.130.0
2017-Sep-17 07:00N 22°48' W 078°48'16019.8 090 / 51013.9 27.024.128.0
2017-Sep-16 22:56N 25°17' W 079°52'716.9
2017-Sep-16 22:30N 25°24' W 079°54'918.0
2017-Sep-16 22:00N 25°32' W 079°58'918.9
2017-Sep-16 21:30N 25°41' W 080°01'612.3
2017-Sep-16 21:00N 25°46' W 080°05'4 8.1
2017-Sep-16 20:28N 25°47' W 080°10'0 0.1
2017-Sep-16 19:55N 25°47' W 080°10'0 0.0
2017-Sep-16 19:25N 25°47' W 080°10'0 0.0
2017-Sep-16 18:58N 25°47' W 080°10'0 0.0
2017-Sep-16 18:28N 25°47' W 080°10'0 0.0
2017-Sep-16 17:58N 25°47' W 080°10'0 0.0
2017-Sep-16 17:28N 25°47' W 080°10'0 0.0
2017-Sep-16 16:58N 25°47' W 080°10'0 0.0
2017-Sep-16 16:28N 25°47' W 080°10'0 0.0
2017-Sep-16 15:58N 25°47' W 080°10'0 0.0
2017-Sep-16 15:28N 25°47' W 080°10'0 0.0
2017-Sep-16 14:58N 25°47' W 080°10'0 0.0
2017-Sep-16 14:28N 25°47' W 080°10'0 0.0
2017-Sep-16 13:58N 25°47' W 080°10'0 0.0
2017-Sep-16 13:28N 25°47' W 080°10'0 0.0
2017-Sep-16 12:58N 25°47' W 080°10'0 0.0
2017-Sep-16 12:28N 25°47' W 080°10'0 0.0
2017-Sep-16 11:58N 25°47' W 080°10'0 0.0
2017-Sep-16 11:28N 25°47' W 080°10'0 0.0
2017-Sep-16 10:58N 25°47' W 080°10'0 0.0
2017-Sep-16 10:28N 25°47' W 080°10'0 0.0
2017-Sep-16 09:58N 25°47' W 080°10'0 0.0
2017-Sep-16 09:28N 25°47' W 080°10'1 1.5
2017-Sep-16 09:00N 25°47' W 080°11'2 3.6
2017-Sep-16 08:30N 25°46' W 080°09'5 9.7
2017-Sep-16 08:00N 25°47' W 080°04'4 7.3
2017-Sep-16 07:30N 25°48' W 079°60'612.9
2017-Sep-16 07:00N 25°51' W 079°53'611.9
2017-Sep-16 06:31N 25°53' W 079°47'816.1
2017-Sep-16 06:00N 25°55' W 079°39'815.9
2017-Sep-16 05:31N 25°59' W 079°31'917.2
2017-Sep-16 05:00N 26°04' W 079°23'6516.2
2017-Sep-16 01:00N 25°54' W 078°12'7312.1 020 / 221013.910.8 28.022.130.0
2017-Sep-15 19:00N 25°00' W 077°18'45 3.8 040 / 61013.927.0 28.025.230.0
2017-Sep-15 07:00N 25°42' W 077°36'73 7.5 030 / 151014.910.8 28.025.230.0
2017-Sep-14 21:16N 26°21' W 078°44'310.6
2017-Sep-14 21:00N 26°23' W 078°46'50 2.8
2017-Sep-14 03:00N 26°54' W 079°30'4212.2 130 / 181013.910.8 30.027.329.0
2017-Sep-13 23:35N 26°13' W 079°33'512.5
2017-Sep-13 23:12N 26°09' W 079°36'312.6
2017-Sep-13 23:00N 26°06' W 079°38'612.6
2017-Sep-13 22:30N 26°01' W 079°40'611.7
2017-Sep-13 22:00N 25°56' W 079°44'612.7
2017-Sep-13 21:30N 25°53' W 079°50'612.7
2017-Sep-13 21:01N 25°50' W 079°57'612.3
2017-Sep-13 20:31N 25°47' W 080°03'510.1
2017-Sep-13 20:00N 25°46' W 080°08'3 5.4
2017-Sep-13 19:30N 25°47' W 080°11'1 1.0
2017-Sep-13 18:54N 25°47' W 080°10'0 0.0
2017-Sep-13 18:30N 25°47' W 080°10'0 0.0
2017-Sep-13 17:57N 25°47' W 080°10'0 0.0
2017-Sep-13 17:27N 25°47' W 080°10'0 0.0
2017-Sep-13 17:00N 25°47' W 080°10'0 0.0
2017-Sep-13 16:30N 25°47' W 080°10'0 0.0
2017-Sep-13 15:57N 25°47' W 080°10'0 0.0
2017-Sep-13 15:30N 25°47' W 080°10'0 0.0
2017-Sep-13 15:00N 25°47' W 080°10'0 0.0
2017-Sep-13 14:24N 25°47' W 080°10'0 0.0
2017-Sep-13 14:00N 25°47' W 080°10'0 0.0
2017-Sep-13 13:27N 25°47' W 080°10'0 0.0
2017-Sep-13 13:00N 25°47' W 080°10'0 0.0
2017-Sep-13 12:30N 25°47' W 080°10'0 0.0
2017-Sep-13 12:00N 25°47' W 080°10'0 0.0
2017-Sep-13 11:27N 25°47' W 080°10'0 0.0
2017-Sep-13 10:54N 25°47' W 080°10'0 0.0
2017-Sep-13 10:30N 25°47' W 080°10'0 0.0
2017-Sep-13 10:00N 25°47' W 080°10'0 0.0
2017-Sep-13 09:12N 25°47' W 080°10'0 0.0
2017-Sep-13 09:00N 25°47' W 080°10'0 0.0
2017-Sep-13 08:30N 25°47' W 080°10'0 0.0
2017-Sep-13 07:57N 25°47' W 080°10'0 0.0
2017-Sep-13 07:27N 25°47' W 080°10'0 0.0
2017-Sep-13 07:00N 25°47' W 080°10'0 0.0
2017-Sep-13 06:24N 25°47' W 080°10'0 0.0
2017-Sep-13 06:00N 25°47' W 080°10'0 0.0
2017-Sep-13 05:21N 25°47' W 080°10'0 0.0
2017-Sep-13 04:57N 25°47' W 080°10'0 0.0
2017-Sep-13 04:30N 25°47' W 080°10'0 0.0
2017-Sep-13 04:00N 25°47' W 080°10'0 0.0
2017-Sep-13 03:27N 25°47' W 080°10'0 0.0
2017-Sep-13 03:00N 25°47' W 080°10'0 0.0
2017-Sep-13 02:30N 25°47' W 080°10'0 0.0
2017-Sep-13 02:00N 25°47' W 080°10'0 0.0
2017-Sep-13 01:24N 25°47' W 080°10'0 0.0
2017-Sep-13 01:00N 25°47' W 080°10'0 0.0
2017-Sep-13 00:30N 25°47' W 080°10'0 0.4
2017-Sep-13 00:00N 25°47' W 080°10'4 8.8
2017-Sep-12 23:30N 25°46' W 080°05'4 8.4
2017-Sep-12 23:00N 25°47' W 080°01'1 1.6
2017-Sep-12 22:30N 25°48' W 080°01'2 4.3
2017-Sep-12 21:59N 25°50' W 079°60'0 0.1
2017-Sep-12 21:30N 25°50' W 079°60'0 0.4
2017-Sep-12 21:00N 25°50' W 079°60'0 0.3
2017-Sep-12 20:30N 25°50' W 079°60'0 0.6
2017-Sep-12 20:00N 25°50' W 080°00'0 0.5
2017-Sep-12 19:30N 25°50' W 080°01'0 0.4
2017-Sep-12 19:00N 25°50' W 080°01'0 0.4
2017-Sep-12 18:30N 25°50' W 080°01'0 0.3
2017-Sep-12 18:00N 25°50' W 080°01'0 0.3
2017-Sep-12 17:30N 25°50' W 080°01'1 1.1
2017-Sep-12 17:00N 25°51' W 080°01'611.2
2017-Sep-12 16:30N 25°50' W 079°55'611.7
2017-Sep-12 16:00N 25°49' W 079°48'510.8
2017-Sep-12 15:30N 25°50' W 079°42'612.1
2017-Sep-12 15:00N 25°48' W 079°36'5403.2 220 / 111010.910.8 28.025.228.0
2017-Sep-12 14:59N 25°53' W 079°37'5 9.8
2017-Sep-12 14:27N 25°58' W 079°37'8 9.5
2017-Sep-12 13:35N 26°07' W 079°37'1 9.3
2017-Sep-12 13:29N 26°07' W 079°38'5 9.7
2017-Sep-12 12:59N 26°10' W 079°42'612.4
2017-Sep-12 12:30N 26°05' W 079°46'714.8
2017-Sep-12 12:00N 25°57' W 079°46'714.7
2017-Sep-12 11:31N 25°50' W 079°46'714.6
2017-Sep-12 11:01N 25°43' W 079°46'714.4
2017-Sep-12 10:30N 25°35' W 079°46'714.1
2017-Sep-12 10:00N 25°28' W 079°46'713.6
2017-Sep-12 09:30N 25°22' W 079°47'58 7.7
2017-Sep-12 02:00N 24°24' W 079°48'24414.3 180 / 131008.9 5.4 28.025.228.0
2017-Sep-11 09:00N 21°42' W 076°30'2525.3 190 / 111008.910.8 28.022.130.0
2017-Sep-11 08:00N 21°30' W 076°06'8614.4 160 / 181010.910.8 28.025.231.0
2017-Sep-11 02:00N 20°54' W 074°42'7017.4 160 / 161010.910.8 28.025.230.0
2017-Sep-10 22:00N 20°06' W 073°48'10014.2 220 / 81009.910.8 28.022.130.0
2017-Sep-10 15:00N 19°24' W 075°24'   150 / 301009.910.8 29.026.229.0
Track history (hours):
 
Tides and Currents Weather Stations Pressure Air Temp Water Temp Dewpoint Dewpoint Depression Visibility Wind Speed Wind Dir Waves Ship Positions

Carnival Glory

Operator: Carnival Cruise Lines

Last reported at 2017-Sep-20 11:00 UTC. Time now 2017-Sep-21 01:32 UTC.
Position N 16°24' W 086°00'.

Type: Passenger vessel. MMSI: 357659000.

Wind from 090 at 21 knots

Barometer 1014.9 mb
Air temperature 27.0 ° C
Visibility: greater than 10.8 NM
Dewpoint 25.6 ° C
Water temperature 30.0 ° C

Date/timePositionNaut miles runAvg speedWind from/ knotsBaromVisibWave heightAir tempDewpointWater temp
2017-Sep-20 11:00N 16°24' W 086°00'8421.0 090 / 211014.910.8 27.025.630.0
2017-Sep-20 07:00N 17°12' W 084°48'7324.2 130 / 201011.9 26.023.128.0
2017-Sep-20 04:00N 17°48' W 083°42'16410.9 090 / 201012.910.8 28.022.130.0
2017-Sep-19 13:00N 19°18' W 081°18'8311.8 110 / 91013.910.8 28.022.130.0
2017-Sep-19 06:00N 18°54' W 079°54'4020.1 130 / 151012.9 28.025.229.0
2017-Sep-19 04:00N 18°48' W 079°12'8617.2 360 / 221011.9 28.022.130.0
2017-Sep-18 23:00N 18°36' W 077°42'57 4.1 140 / 91012.9 25.023.529.0
2017-Sep-18 09:00N 18°36' W 076°42'9819.5 100 / 191013.9 28.026.630.0
2017-Sep-18 04:00N 19°24' W 075°12'2625.6 030 / 71013.910.8 28.022.130.0
2017-Sep-18 03:00N 19°36' W 074°48'2612.8 340 / 61013.910.8 28.022.130.0
2017-Sep-18 01:00N 19°48' W 074°24'15615.6 340 / 51013.910.8 28.022.130.0
2017-Sep-17 15:00N 21°36' W 076°24'15218.9 220 / 21014.910.8 28.022.130.0
2017-Sep-17 07:00N 22°48' W 078°48'16019.8 090 / 51013.9 27.024.128.0
2017-Sep-16 22:56N 25°17' W 079°52'716.9
2017-Sep-16 22:30N 25°24' W 079°54'918.0
2017-Sep-16 22:00N 25°32' W 079°58'918.9
2017-Sep-16 21:30N 25°41' W 080°01'612.3
2017-Sep-16 21:00N 25°46' W 080°05'4 8.1
2017-Sep-16 20:28N 25°47' W 080°10'0 0.1
2017-Sep-16 19:55N 25°47' W 080°10'0 0.0
2017-Sep-16 19:25N 25°47' W 080°10'0 0.0
2017-Sep-16 18:58N 25°47' W 080°10'0 0.0
2017-Sep-16 18:28N 25°47' W 080°10'0 0.0
2017-Sep-16 17:58N 25°47' W 080°10'0 0.0
2017-Sep-16 17:28N 25°47' W 080°10'0 0.0
2017-Sep-16 16:58N 25°47' W 080°10'0 0.0
2017-Sep-16 16:28N 25°47' W 080°10'0 0.0
2017-Sep-16 15:58N 25°47' W 080°10'0 0.0
2017-Sep-16 15:28N 25°47' W 080°10'0 0.0
2017-Sep-16 14:58N 25°47' W 080°10'0 0.0
2017-Sep-16 14:28N 25°47' W 080°10'0 0.0
2017-Sep-16 13:58N 25°47' W 080°10'0 0.0
2017-Sep-16 13:28N 25°47' W 080°10'0 0.0
2017-Sep-16 12:58N 25°47' W 080°10'0 0.0
2017-Sep-16 12:28N 25°47' W 080°10'0 0.0
2017-Sep-16 11:58N 25°47' W 080°10'0 0.0
2017-Sep-16 11:28N 25°47' W 080°10'0 0.0
2017-Sep-16 10:58N 25°47' W 080°10'0 0.0
2017-Sep-16 10:28N 25°47' W 080°10'0 0.0
2017-Sep-16 09:58N 25°47' W 080°10'0 0.0
2017-Sep-16 09:28N 25°47' W 080°10'1 1.5
2017-Sep-16 09:00N 25°47' W 080°11'2 3.6
2017-Sep-16 08:30N 25°46' W 080°09'5 9.7
2017-Sep-16 08:00N 25°47' W 080°04'4 7.3
2017-Sep-16 07:30N 25°48' W 079°60'612.9
2017-Sep-16 07:00N 25°51' W 079°53'611.9
2017-Sep-16 06:31N 25°53' W 079°47'816.1
2017-Sep-16 06:00N 25°55' W 079°39'815.9
2017-Sep-16 05:31N 25°59' W 079°31'917.2
2017-Sep-16 05:00N 26°04' W 079°23'6516.2
2017-Sep-16 01:00N 25°54' W 078°12'7312.1 020 / 221013.910.8 28.022.130.0
2017-Sep-15 19:00N 25°00' W 077°18'45 3.8 040 / 61013.927.0 28.025.230.0
2017-Sep-15 07:00N 25°42' W 077°36'73 7.5 030 / 151014.910.8 28.025.230.0
2017-Sep-14 21:16N 26°21' W 078°44'310.6
2017-Sep-14 21:00N 26°23' W 078°46'50 2.8
2017-Sep-14 03:00N 26°54' W 079°30'4212.2 130 / 181013.910.8 30.027.329.0
2017-Sep-13 23:35N 26°13' W 079°33'512.5
2017-Sep-13 23:12N 26°09' W 079°36'312.6
2017-Sep-13 23:00N 26°06' W 079°38'612.6
2017-Sep-13 22:30N 26°01' W 079°40'611.7
2017-Sep-13 22:00N 25°56' W 079°44'612.7
2017-Sep-13 21:30N 25°53' W 079°50'612.7
2017-Sep-13 21:01N 25°50' W 079°57'612.3
2017-Sep-13 20:31N 25°47' W 080°03'510.1
2017-Sep-13 20:00N 25°46' W 080°08'3 5.4
2017-Sep-13 19:30N 25°47' W 080°11'1 1.0
2017-Sep-13 18:54N 25°47' W 080°10'0 0.0
2017-Sep-13 18:30N 25°47' W 080°10'0 0.0
2017-Sep-13 17:57N 25°47' W 080°10'0 0.0
2017-Sep-13 17:27N 25°47' W 080°10'0 0.0
2017-Sep-13 17:00N 25°47' W 080°10'0 0.0
2017-Sep-13 16:30N 25°47' W 080°10'0 0.0
2017-Sep-13 15:57N 25°47' W 080°10'0 0.0
2017-Sep-13 15:30N 25°47' W 080°10'0 0.0
2017-Sep-13 15:00N 25°47' W 080°10'0 0.0
2017-Sep-13 14:24N 25°47' W 080°10'0 0.0
2017-Sep-13 14:00N 25°47' W 080°10'0 0.0
2017-Sep-13 13:27N 25°47' W 080°10'0 0.0
2017-Sep-13 13:00N 25°47' W 080°10'0 0.0
2017-Sep-13 12:30N 25°47' W 080°10'0 0.0
2017-Sep-13 12:00N 25°47' W 080°10'0 0.0
2017-Sep-13 11:27N 25°47' W 080°10'0 0.0
2017-Sep-13 10:54N 25°47' W 080°10'0 0.0
2017-Sep-13 10:30N 25°47' W 080°10'0 0.0
2017-Sep-13 10:00N 25°47' W 080°10'0 0.0
2017-Sep-13 09:12N 25°47' W 080°10'0 0.0
2017-Sep-13 09:00N 25°47' W 080°10'0 0.0
2017-Sep-13 08:30N 25°47' W 080°10'0 0.0
2017-Sep-13 07:57N 25°47' W 080°10'0 0.0
2017-Sep-13 07:27N 25°47' W 080°10'0 0.0
2017-Sep-13 07:00N 25°47' W 080°10'0 0.0
2017-Sep-13 06:24N 25°47' W 080°10'0 0.0
2017-Sep-13 06:00N 25°47' W 080°10'0 0.0
2017-Sep-13 05:21N 25°47' W 080°10'0 0.0
2017-Sep-13 04:57N 25°47' W 080°10'0 0.0
2017-Sep-13 04:30N 25°47' W 080°10'0 0.0
2017-Sep-13 04:00N 25°47' W 080°10'0 0.0
2017-Sep-13 03:27N 25°47' W 080°10'0 0.0
2017-Sep-13 03:00N 25°47' W 080°10'0 0.0
2017-Sep-13 02:30N 25°47' W 080°10'0 0.0
2017-Sep-13 02:00N 25°47' W 080°10'0 0.0
2017-Sep-13 01:24N 25°47' W 080°10'0 0.0
2017-Sep-13 01:00N 25°47' W 080°10'0 0.0
2017-Sep-13 00:30N 25°47' W 080°10'0 0.4
2017-Sep-13 00:00N 25°47' W 080°10'4 8.8
2017-Sep-12 23:30N 25°46' W 080°05'4 8.4
2017-Sep-12 23:00N 25°47' W 080°01'1 1.6
2017-Sep-12 22:30N 25°48' W 080°01'2 4.3
2017-Sep-12 21:59N 25°50' W 079°60'0 0.1
2017-Sep-12 21:30N 25°50' W 079°60'0 0.4
2017-Sep-12 21:00N 25°50' W 079°60'0 0.3
2017-Sep-12 20:30N 25°50' W 079°60'0 0.6
2017-Sep-12 20:00N 25°50' W 080°00'0 0.5
2017-Sep-12 19:30N 25°50' W 080°01'0 0.4
2017-Sep-12 19:00N 25°50' W 080°01'0 0.4
2017-Sep-12 18:30N 25°50' W 080°01'0 0.3
2017-Sep-12 18:00N 25°50' W 080°01'0 0.3
2017-Sep-12 17:30N 25°50' W 080°01'1 1.1
2017-Sep-12 17:00N 25°51' W 080°01'611.2
2017-Sep-12 16:30N 25°50' W 079°55'611.7
2017-Sep-12 16:00N 25°49' W 079°48'510.8
2017-Sep-12 15:30N 25°50' W 079°42'612.1
2017-Sep-12 15:00N 25°48' W 079°36'5403.2 220 / 111010.910.8 28.025.228.0
2017-Sep-12 14:59N 25°53' W 079°37'5 9.8
2017-Sep-12 14:27N 25°58' W 079°37'8 9.5
2017-Sep-12 13:35N 26°07' W 079°37'1 9.3
2017-Sep-12 13:29N 26°07' W 079°38'5 9.7
2017-Sep-12 12:59N 26°10' W 079°42'612.4
2017-Sep-12 12:30N 26°05' W 079°46'714.8
2017-Sep-12 12:00N 25°57' W 079°46'714.7
2017-Sep-12 11:31N 25°50' W 079°46'714.6
2017-Sep-12 11:01N 25°43' W 079°46'714.4
2017-Sep-12 10:30N 25°35' W 079°46'714.1
2017-Sep-12 10:00N 25°28' W 079°46'713.6
2017-Sep-12 09:30N 25°22' W 079°47'58 7.7
2017-Sep-12 02:00N 24°24' W 079°48'24414.3 180 / 131008.9 5.4 28.025.228.0
2017-Sep-11 09:00N 21°42' W 076°30'2525.3 190 / 111008.910.8 28.022.130.0
2017-Sep-11 08:00N 21°30' W 076°06'8614.4 160 / 181010.910.8 28.025.231.0
2017-Sep-11 02:00N 20°54' W 074°42'7017.4 160 / 161010.910.8 28.025.230.0
2017-Sep-10 22:00N 20°06' W 073°48'10014.2 220 / 81009.910.8 28.022.130.0
2017-Sep-10 15:00N 19°24' W 075°24'   150 / 301009.910.8 29.026.229.0

Dump ship's entire track history